createdAt,value
2019-05-25T00:01:43.579Z,4.80
2019-05-25T00:04:12.169Z,5.07
2019-05-25T00:06:40.746Z,4.23
2019-05-25T00:09:09.498Z,4.90
2019-05-25T00:11:38.075Z,5.40
2019-05-25T00:14:06.652Z,4.87
2019-05-25T00:16:35.366Z,4.87
2019-05-25T00:19:04.080Z,4.77
2019-05-25T00:21:32.622Z,4.70
2019-05-25T00:24:11.847Z,5.17
2019-05-25T00:26:31.452Z,4.97
2019-05-25T00:29:00.039Z,5.20
2019-05-25T00:31:28.665Z,4.67
2019-05-25T00:33:57.234Z,4.80
2019-05-25T00:36:25.988Z,5.10
2019-05-25T00:38:54.565Z,4.70
2019-05-25T00:41:23.126Z,4.63
2019-05-25T00:43:51.825Z,4.47
2019-05-25T00:46:20.410Z,4.83
2019-05-25T00:48:49.019Z,4.40
2019-05-25T00:51:17.625Z,5.00
2019-05-25T00:53:46.194Z,4.40
2019-05-25T00:56:14.847Z,5.13
2019-05-25T00:58:43.420Z,4.53
2019-05-25T01:01:12.126Z,4.80
2019-05-25T01:03:40.732Z,4.60
2019-05-25T01:06:09.334Z,4.63
2019-05-25T01:08:38.214Z,4.53
2019-05-25T01:11:06.805Z,4.77
2019-05-25T01:13:35.370Z,4.97
2019-05-25T01:16:04.319Z,4.70
2019-05-25T01:18:33.340Z,4.73
2019-05-25T01:21:02.089Z,4.73
2019-05-25T01:23:30.680Z,4.40
2019-05-25T01:25:59.319Z,5.00
2019-05-25T01:28:27.918Z,5.13
2019-05-25T01:30:56.616Z,4.57
2019-05-25T01:33:25.193Z,4.33
2019-05-25T01:35:53.803Z,4.70
2019-05-25T01:38:22.437Z,4.80
2019-05-25T01:40:51.017Z,5.20
2019-05-25T01:43:19.609Z,4.77
2019-05-25T01:45:48.181Z,5.07
2019-05-25T01:48:17.053Z,4.53
2019-05-25T01:50:45.620Z,4.90
2019-05-25T01:53:14.169Z,4.90
2019-05-25T01:55:42.828Z,4.67
2019-05-25T01:58:11.458Z,5.30
2019-05-25T02:00:40.023Z,5.47
2019-05-25T02:03:08.613Z,5.43
2019-05-25T02:05:37.149Z,5.10
2019-05-25T02:08:05.672Z,4.83
2019-05-25T02:10:34.241Z,5.17
2019-05-25T02:13:02.826Z,5.53
2019-05-25T02:15:31.396Z,5.47
2019-05-25T02:18:00.029Z,5.57
2019-05-25T02:20:28.629Z,4.90
2019-05-25T02:22:57.192Z,5.10
2019-05-25T02:25:26.110Z,4.90
2019-05-25T02:27:54.718Z,5.53
2019-05-25T02:30:28.654Z,5.20
2019-05-25T02:32:57.189Z,4.40
2019-05-25T02:35:27.548Z,5.10
2019-05-25T02:37:57.232Z,5.33
2019-05-25T02:40:25.943Z,5.00
2019-05-25T02:42:54.823Z,4.93
2019-05-25T02:45:23.958Z,5.00
2019-05-25T02:47:52.866Z,5.50
2019-05-25T02:50:21.885Z,5.90
2019-05-25T02:52:50.437Z,5.70
2019-05-25T02:55:33.240Z,5.30
2019-05-25T02:57:50.158Z,6.13
2019-05-25T03:00:21.801Z,6.13
2019-05-25T03:02:50.538Z,5.50
2019-05-25T03:05:20.142Z,5.57
2019-05-25T03:07:49.262Z,6.37
2019-05-25T03:10:18.663Z,5.10
2019-05-25T03:12:47.577Z,5.33
2019-05-25T03:15:16.631Z,5.57
2019-05-25T03:17:45.241Z,5.20
2019-05-25T03:20:14.779Z,5.17
2019-05-25T03:22:43.359Z,5.47
2019-05-25T03:25:12.037Z,5.03
2019-05-25T03:27:40.633Z,5.30
2019-05-25T03:30:10.171Z,5.43
2019-05-25T03:32:38.751Z,5.20
2019-05-25T03:35:08.234Z,5.47
2019-05-25T03:37:36.964Z,5.03
2019-05-25T03:40:08.032Z,4.97
2019-05-25T03:42:36.664Z,4.67
2019-05-25T03:45:08.243Z,4.50
2019-05-25T03:47:36.825Z,5.37
2019-05-25T03:50:05.948Z,5.03
2019-05-25T03:52:34.562Z,4.77
2019-05-25T03:55:03.590Z,3.93
2019-05-25T03:57:32.147Z,4.23
2019-05-25T04:00:00.721Z,4.50
2019-05-25T04:02:29.354Z,4.07
2019-05-25T04:04:57.900Z,4.20
2019-05-25T04:07:26.476Z,4.07
2019-05-25T04:09:55.026Z,4.30
2019-05-25T04:12:23.588Z,4.20
2019-05-25T04:14:52.158Z,3.50
2019-05-25T04:17:20.649Z,3.30
2019-05-25T04:19:49.218Z,3.23
2019-05-25T04:22:17.797Z,3.40
2019-05-25T04:24:46.385Z,3.57
2019-05-25T04:27:15.209Z,3.30
2019-05-25T04:29:43.831Z,3.20
2019-05-25T04:32:12.421Z,2.87
2019-05-25T04:34:40.991Z,3.07
2019-05-25T04:37:09.565Z,3.33
2019-05-25T04:39:38.140Z,2.97
2019-05-25T04:42:06.786Z,2.70
2019-05-25T04:44:35.347Z,3.23
2019-05-25T04:47:04.215Z,3.23
2019-05-25T04:49:33.070Z,3.22
2019-05-25T04:52:01.644Z,3.30
2019-05-25T04:54:30.190Z,3.30
2019-05-25T04:56:58.767Z,3.80
2019-05-25T04:59:27.356Z,3.60
2019-05-25T05:01:55.903Z,3.60
2019-05-25T05:04:24.498Z,3.60
2019-05-25T05:06:53.081Z,3.70
2019-05-25T05:09:21.670Z,3.33
2019-05-25T05:11:50.292Z,3.50
2019-05-25T05:14:18.841Z,3.77
2019-05-25T05:16:47.806Z,3.73
2019-05-25T05:19:16.363Z,3.70
2019-05-25T05:21:44.907Z,3.57
2019-05-25T05:24:13.565Z,3.57
2019-05-25T05:26:54.584Z,3.63
2019-05-25T05:29:12.349Z,3.60
2019-05-25T05:31:40.976Z,3.50
2019-05-25T05:34:09.605Z,3.70
2019-05-25T05:36:38.308Z,3.50
2019-05-25T05:39:08.712Z,3.27
2019-05-25T05:41:40.786Z,3.43
2019-05-25T05:44:09.438Z,3.17
2019-05-25T05:46:38.682Z,3.60
2019-05-25T05:49:09.772Z,3.23
2019-05-25T05:51:39.435Z,2.87
2019-05-25T05:54:07.999Z,2.87
2019-05-25T05:56:36.584Z,3.00
2019-05-25T05:59:05.164Z,3.20
2019-05-25T06:01:33.735Z,3.00
2019-05-25T06:04:02.697Z,2.53
2019-05-25T06:06:31.246Z,2.95
2019-05-25T06:08:59.733Z,3.23
2019-05-25T06:11:28.240Z,3.13
2019-05-25T06:13:56.781Z,2.67
2019-05-25T06:16:25.368Z,3.50
2019-05-25T06:18:53.929Z,2.93
2019-05-25T06:21:22.496Z,2.80
2019-05-25T06:23:51.326Z,3.00
2019-05-25T06:26:19.956Z,2.63
2019-05-25T06:28:48.511Z,2.83
2019-05-25T06:31:17.097Z,2.70
2019-05-25T06:33:45.653Z,2.37
2019-05-25T06:36:14.227Z,2.90
2019-05-25T06:38:42.880Z,2.60
2019-05-25T06:41:11.421Z,2.70
2019-05-25T06:43:39.999Z,2.70
2019-05-25T06:46:08.545Z,2.23
2019-05-25T06:48:37.115Z,2.53
2019-05-25T06:51:05.829Z,2.47
2019-05-25T06:53:34.378Z,2.40
2019-05-25T06:56:03.309Z,2.70
2019-05-25T06:58:31.884Z,2.43
2019-05-25T07:01:00.436Z,2.50
2019-05-25T07:03:28.942Z,2.20
2019-05-25T07:05:57.517Z,2.80
2019-05-25T07:08:26.059Z,2.33
2019-05-25T07:10:54.652Z,2.13
2019-05-25T07:13:23.197Z,2.10
2019-05-25T07:15:51.734Z,1.90
2019-05-25T07:18:20.277Z,2.43
2019-05-25T07:20:48.914Z,1.60
2019-05-25T07:23:17.480Z,2.10
2019-05-25T07:25:46.041Z,1.50
2019-05-25T07:28:14.598Z,1.70
2019-05-25T07:30:46.505Z,1.97
2019-05-25T07:33:13.524Z,1.70
2019-05-25T07:35:42.097Z,1.80
2019-05-25T07:38:10.672Z,2.10
2019-05-25T07:40:39.213Z,2.00
2019-05-25T07:43:07.889Z,2.50
2019-05-25T07:45:36.439Z,2.13
2019-05-25T07:48:05.145Z,2.17
2019-05-25T07:50:34.072Z,2.53
2019-05-25T07:53:02.613Z,2.60
2019-05-25T07:55:31.298Z,2.70
2019-05-25T07:58:15.801Z,2.67
2019-05-25T08:00:30.198Z,2.67
2019-05-25T08:02:59.626Z,2.57
2019-05-25T08:05:28.227Z,3.00
2019-05-25T08:07:56.779Z,2.60
2019-05-25T08:10:25.692Z,2.20
2019-05-25T08:12:54.266Z,2.43
2019-05-25T08:15:23.265Z,1.97
2019-05-25T08:17:51.911Z,1.90
2019-05-25T08:20:20.493Z,2.27
2019-05-25T08:22:49.130Z,2.20
2019-05-25T08:25:17.760Z,2.23
2019-05-25T08:27:46.340Z,2.40
2019-05-25T08:30:14.962Z,2.20
2019-05-25T08:32:43.551Z,2.83
2019-05-25T08:35:12.746Z,2.17
2019-05-25T08:37:41.309Z,2.23
2019-05-25T08:40:11.016Z,2.47
2019-05-25T08:42:39.566Z,2.67
2019-05-25T08:45:08.594Z,3.00
2019-05-25T08:47:37.246Z,2.90
2019-05-25T08:50:07.993Z,3.13
2019-05-25T08:52:36.895Z,3.10
2019-05-25T08:55:06.990Z,3.03
2019-05-25T08:57:35.831Z,3.23
2019-05-25T09:00:06.075Z,2.70
2019-05-25T09:02:34.615Z,2.40
2019-05-25T09:05:04.844Z,2.40
2019-05-25T09:07:33.429Z,3.40
2019-05-25T09:10:01.984Z,3.17
2019-05-25T09:12:30.585Z,3.03
2019-05-25T09:14:59.130Z,2.77
2019-05-25T09:17:27.693Z,3.17
2019-05-25T09:19:56.188Z,2.47
2019-05-25T09:22:24.812Z,2.20
2019-05-25T09:24:53.359Z,2.10
2019-05-25T09:27:21.921Z,2.57
2019-05-25T09:29:50.411Z,3.00
2019-05-25T09:32:18.975Z,2.57
2019-05-25T09:34:47.539Z,2.80
2019-05-25T09:37:16.126Z,2.40
2019-05-25T09:39:44.675Z,2.40
2019-05-25T09:42:13.236Z,2.20
2019-05-25T09:44:41.830Z,2.30
2019-05-25T09:47:10.411Z,2.83
2019-05-25T09:49:38.985Z,3.00
2019-05-25T09:52:07.935Z,2.87
2019-05-25T09:54:36.506Z,3.10
2019-05-25T09:57:05.208Z,2.70
2019-05-25T09:59:33.845Z,2.67
2019-05-25T10:02:03.666Z,2.70
2019-05-25T10:04:32.223Z,2.40
2019-05-25T10:07:00.957Z,2.53
2019-05-25T10:09:29.480Z,2.90
2019-05-25T10:11:58.026Z,2.33
2019-05-25T10:14:26.607Z,2.13
2019-05-25T10:16:55.185Z,3.00
2019-05-25T10:19:23.757Z,2.60
2019-05-25T10:21:52.383Z,2.40
2019-05-25T10:24:20.945Z,2.00
2019-05-25T10:26:49.726Z,2.10
2019-05-25T10:29:18.402Z,2.07
2019-05-25T10:31:46.967Z,2.37
2019-05-25T10:34:15.545Z,2.40
2019-05-25T10:36:44.117Z,2.30
2019-05-25T10:39:12.657Z,2.40
2019-05-25T10:41:41.254Z,2.43
2019-05-25T10:44:09.819Z,2.23
2019-05-25T10:46:38.361Z,2.40
2019-05-25T10:49:06.875Z,2.60
2019-05-25T10:51:35.486Z,2.23
2019-05-25T10:54:04.338Z,2.40
2019-05-25T10:56:33.004Z,2.77
2019-05-25T10:59:01.546Z,2.40
2019-05-25T11:01:30.415Z,2.00
2019-05-25T11:03:58.970Z,2.47
2019-05-25T11:06:27.522Z,2.23
2019-05-25T11:08:56.129Z,2.30
2019-05-25T11:11:24.670Z,1.97
2019-05-25T11:13:53.170Z,2.23
2019-05-25T11:16:21.744Z,2.50
2019-05-25T11:18:50.309Z,2.80
2019-05-25T11:21:18.890Z,2.60
2019-05-25T11:23:47.430Z,2.50
2019-05-25T11:26:15.996Z,2.30
2019-05-25T11:28:44.680Z,2.40
2019-05-25T11:31:13.237Z,2.67
2019-05-25T11:33:41.887Z,2.27
2019-05-25T11:36:10.882Z,2.53
2019-05-25T11:38:39.421Z,2.90
2019-05-25T11:41:08.353Z,3.20
2019-05-25T11:43:36.908Z,2.63
2019-05-25T11:46:05.710Z,2.53
2019-05-25T11:48:34.623Z,2.60
2019-05-25T11:51:03.187Z,2.10
2019-05-25T11:53:31.702Z,2.83
2019-05-25T11:56:00.270Z,2.60
2019-05-25T11:58:28.821Z,2.57
2019-05-25T12:00:57.316Z,2.33
2019-05-25T12:03:26.010Z,2.73
2019-05-25T12:05:54.782Z,2.80
2019-05-25T12:08:23.297Z,2.40
2019-05-25T12:10:51.851Z,2.90
2019-05-25T12:13:20.441Z,2.90
2019-05-25T12:15:48.996Z,3.03
2019-05-25T12:18:17.615Z,2.40
2019-05-25T12:20:46.153Z,2.60
2019-05-25T12:23:14.808Z,2.43
2019-05-25T12:25:43.333Z,2.67
2019-05-25T12:28:11.908Z,2.80
2019-05-25T12:30:41.441Z,3.07
2019-05-25T12:33:10.543Z,2.50
2019-05-25T12:35:39.106Z,2.50
2019-05-25T12:38:07.691Z,2.70
2019-05-25T12:40:36.260Z,2.50
2019-05-25T12:43:05.059Z,2.23
2019-05-25T12:45:33.618Z,2.47
2019-05-25T12:48:02.553Z,2.90
2019-05-25T12:50:31.099Z,2.50
2019-05-25T12:52:59.689Z,2.60
2019-05-25T12:55:28.264Z,2.97
2019-05-25T12:57:56.922Z,2.40
2019-05-25T13:00:25.421Z,2.43
2019-05-25T13:02:54.029Z,2.53
2019-05-25T13:05:33.528Z,2.87
2019-05-25T13:07:52.745Z,2.30
2019-05-25T13:10:21.724Z,2.50
2019-05-25T13:12:50.297Z,2.47
2019-05-25T13:15:18.956Z,2.60
2019-05-25T13:17:47.583Z,2.90
2019-05-25T13:20:16.391Z,2.43
2019-05-25T13:22:44.947Z,2.50
2019-05-25T13:25:13.694Z,2.20
2019-05-25T13:27:42.269Z,2.50
2019-05-25T13:30:11.179Z,2.30
2019-05-25T13:32:39.754Z,2.50
2019-05-25T13:35:09.580Z,2.60
2019-05-25T13:37:38.141Z,2.67
2019-05-25T13:40:07.350Z,2.47
2019-05-25T13:42:35.987Z,2.10
2019-05-25T13:45:06.603Z,2.70
2019-05-25T13:47:35.176Z,2.50
2019-05-25T13:50:06.859Z,2.73
2019-05-25T13:52:35.782Z,2.53
2019-05-25T13:55:05.757Z,2.10
2019-05-25T13:57:34.398Z,2.27
2019-05-25T14:00:03.085Z,2.80
2019-05-25T14:02:31.998Z,2.70
2019-05-25T14:05:00.558Z,2.67
2019-05-25T14:07:29.141Z,3.00
2019-05-25T14:09:57.692Z,2.70
2019-05-25T14:12:26.657Z,2.50
2019-05-25T14:14:55.240Z,2.47
2019-05-25T14:17:23.866Z,2.20
2019-05-25T14:19:52.441Z,1.93
2019-05-25T14:22:21.014Z,1.97
2019-05-25T14:24:49.561Z,2.17
2019-05-25T14:27:18.560Z,1.80
2019-05-25T14:29:47.108Z,1.60
2019-05-25T14:32:15.696Z,1.73
2019-05-25T14:34:44.281Z,1.87
2019-05-25T14:37:13.191Z,1.80
2019-05-25T14:39:41.761Z,1.70
2019-05-25T14:42:10.323Z,1.50
2019-05-25T14:44:38.798Z,1.70
2019-05-25T14:47:07.312Z,1.90
2019-05-25T14:49:35.925Z,1.83
2019-05-25T14:52:05.001Z,1.60
2019-05-25T14:54:33.607Z,1.40
2019-05-25T14:57:02.351Z,1.60
2019-05-25T14:59:30.926Z,1.97
2019-05-25T15:02:02.777Z,1.60
2019-05-25T15:04:29.894Z,1.70
2019-05-25T15:06:58.687Z,1.70
2019-05-25T15:09:27.390Z,1.77
2019-05-25T15:11:55.978Z,1.70
2019-05-25T15:14:24.535Z,1.60
2019-05-25T15:16:53.259Z,1.27
2019-05-25T15:19:21.913Z,1.60
2019-05-25T15:21:50.639Z,1.23
2019-05-25T15:24:19.224Z,1.60
2019-05-25T15:26:47.804Z,1.83
2019-05-25T15:29:16.365Z,1.80
2019-05-25T15:31:44.930Z,1.80
2019-05-25T15:34:13.517Z,2.10
2019-05-25T15:36:42.076Z,2.27
2019-05-25T15:39:10.644Z,2.10
2019-05-25T15:41:39.265Z,1.73
2019-05-25T15:44:07.746Z,1.73
2019-05-25T15:46:36.337Z,2.30
2019-05-25T15:49:05.102Z,2.67
2019-05-25T15:51:33.694Z,2.70
2019-05-25T15:54:02.252Z,2.37
2019-05-25T15:56:30.818Z,2.17
2019-05-25T15:58:59.385Z,2.03
2019-05-25T16:01:28.042Z,1.90
2019-05-25T16:03:56.595Z,1.90
2019-05-25T16:06:25.244Z,1.83
2019-05-25T16:08:54.061Z,3.70
2019-05-25T16:11:22.640Z,2.97
2019-05-25T16:13:51.209Z,2.57
2019-05-25T16:16:19.950Z,2.50
2019-05-25T16:18:48.612Z,2.90
2019-05-25T16:21:17.181Z,3.00
2019-05-25T16:23:45.674Z,2.83
2019-05-25T16:26:14.193Z,2.80
2019-05-25T16:28:42.751Z,3.20
2019-05-25T16:31:11.342Z,2.97
2019-05-25T16:33:39.899Z,3.53
2019-05-25T16:36:08.525Z,3.53
2019-05-25T16:38:37.113Z,3.00
2019-05-25T16:41:06.131Z,3.07
2019-05-25T16:43:34.689Z,2.80
2019-05-25T16:46:03.274Z,3.20
2019-05-25T16:48:31.810Z,3.03
2019-05-25T16:51:00.381Z,3.00
2019-05-25T16:53:28.973Z,2.93
2019-05-25T16:55:57.527Z,2.87
2019-05-25T16:58:26.101Z,3.70
2019-05-25T17:00:55.575Z,2.90
2019-05-25T17:03:28.853Z,2.70
2019-05-25T17:05:54.609Z,2.60
2019-05-25T17:08:23.608Z,2.40
2019-05-25T17:10:53.478Z,2.40
2019-05-25T17:13:22.059Z,2.37
2019-05-25T17:15:50.605Z,2.43
2019-05-25T17:18:19.192Z,2.20
2019-05-25T17:20:47.754Z,2.23
2019-05-25T17:23:16.542Z,2.00
2019-05-25T17:25:45.130Z,2.00
2019-05-25T17:28:13.682Z,2.17
2019-05-25T17:30:44.518Z,2.00
2019-05-25T17:33:13.817Z,2.00
2019-05-25T17:35:42.814Z,1.90
2019-05-25T17:38:11.574Z,1.73
2019-05-25T17:40:40.133Z,1.97
2019-05-25T17:43:08.755Z,2.00
2019-05-25T17:45:37.334Z,2.07
2019-05-25T17:48:06.089Z,2.07
2019-05-25T17:50:34.664Z,2.10
2019-05-25T17:53:03.310Z,2.17
2019-05-25T17:55:31.875Z,1.80
2019-05-25T17:58:01.004Z,2.13
2019-05-25T18:00:38.301Z,2.27
2019-05-25T18:03:07.029Z,2.03
2019-05-25T18:05:35.614Z,2.27
2019-05-25T18:08:05.815Z,1.90
2019-05-25T18:10:51.035Z,1.97
2019-05-25T18:13:05.354Z,2.03
2019-05-25T18:15:33.946Z,2.20
2019-05-25T18:18:02.512Z,1.90
2019-05-25T18:20:31.142Z,2.10
2019-05-25T18:22:59.690Z,1.80
2019-05-25T18:25:28.268Z,2.20
2019-05-25T18:27:56.813Z,2.43
2019-05-25T18:30:25.966Z,2.53
2019-05-25T18:32:54.917Z,2.73
2019-05-25T18:35:23.694Z,2.60
2019-05-25T18:37:52.333Z,2.50
2019-05-25T18:40:21.713Z,2.67
2019-05-25T18:42:50.190Z,2.70
2019-05-25T18:45:19.009Z,2.60
2019-05-25T18:47:47.622Z,2.90
2019-05-25T18:50:16.775Z,2.97
2019-05-25T18:52:45.340Z,3.60
2019-05-25T18:55:14.220Z,6.13
2019-05-25T18:57:42.736Z,4.67
2019-05-25T19:00:11.927Z,4.00
2019-05-25T19:02:40.561Z,3.33
2019-05-25T19:05:09.780Z,3.90
2019-05-25T19:07:38.481Z,3.53
2019-05-25T19:10:10.437Z,3.00
2019-05-25T19:12:39.103Z,3.37
2019-05-25T19:15:08.104Z,3.20
2019-05-25T19:17:36.760Z,3.23
2019-05-25T19:20:07.120Z,2.93
2019-05-25T19:22:35.638Z,3.20
2019-05-25T19:25:06.451Z,2.90
2019-05-25T19:27:35.023Z,3.00
2019-05-25T19:30:05.402Z,2.47
2019-05-25T19:32:33.981Z,3.10
2019-05-25T19:35:02.516Z,2.93
2019-05-25T19:37:31.025Z,3.00
2019-05-25T19:40:00.252Z,3.63
2019-05-25T19:42:28.877Z,3.13
2019-05-25T19:44:57.382Z,3.10
2019-05-25T19:47:25.941Z,3.60
2019-05-25T19:49:54.603Z,4.50
2019-05-25T19:52:23.190Z,4.77
2019-05-25T19:54:52.219Z,6.10
2019-05-25T19:57:20.808Z,5.70
2019-05-25T19:59:49.736Z,4.90
2019-05-25T20:02:18.323Z,5.00
2019-05-25T20:04:46.987Z,3.90
2019-05-25T20:07:15.667Z,4.17
2019-05-25T20:09:44.227Z,5.00
2019-05-25T20:12:12.789Z,5.30
2019-05-25T20:14:41.428Z,4.87
2019-05-25T20:17:10.067Z,4.17
2019-05-25T20:19:38.649Z,4.53
2019-05-25T20:22:09.249Z,4.43
2019-05-25T20:24:37.490Z,4.57
2019-05-25T20:27:06.071Z,5.30
2019-05-25T20:29:34.622Z,5.15
2019-05-25T20:32:03.178Z,5.33
2019-05-25T20:34:31.756Z,4.03
2019-05-25T20:37:00.300Z,3.83
2019-05-25T20:39:28.830Z,3.40
2019-05-25T20:41:57.397Z,3.50
2019-05-25T20:44:25.973Z,3.63
2019-05-25T20:46:54.478Z,3.83
2019-05-25T20:49:23.118Z,3.23
2019-05-25T20:51:51.604Z,3.23
2019-05-25T20:54:20.223Z,5.53
2019-05-25T20:56:48.843Z,6.73
2019-05-25T20:59:17.540Z,4.53
2019-05-25T21:01:46.096Z,3.80
2019-05-25T21:04:14.657Z,3.40
2019-05-25T21:06:43.232Z,3.63
2019-05-25T21:09:11.846Z,3.70
2019-05-25T21:11:40.507Z,3.60
2019-05-25T21:14:09.101Z,4.30
2019-05-25T21:16:37.657Z,4.67
2019-05-25T21:19:06.263Z,5.40
2019-05-25T21:21:34.855Z,5.27
2019-05-25T21:24:03.649Z,5.50
2019-05-25T21:26:32.232Z,4.40
2019-05-25T21:29:00.781Z,4.30
2019-05-25T21:31:29.343Z,4.27
2019-05-25T21:33:57.903Z,4.23
2019-05-25T21:36:26.815Z,3.90
2019-05-25T21:38:55.385Z,3.20
2019-05-25T21:41:23.944Z,3.50
2019-05-25T21:43:52.505Z,3.13
2019-05-25T21:46:21.499Z,3.40
2019-05-25T21:48:50.045Z,3.10
2019-05-25T21:51:18.690Z,3.60
2019-05-25T21:53:47.627Z,3.03
2019-05-25T21:56:16.252Z,3.03
2019-05-25T21:58:44.831Z,3.27
2019-05-25T22:01:13.942Z,3.43
2019-05-25T22:03:42.803Z,3.37
2019-05-25T22:06:23.739Z,3.37
2019-05-25T22:08:41.602Z,3.30
2019-05-25T22:11:10.158Z,3.50
2019-05-25T22:13:38.727Z,3.10
2019-05-25T22:16:07.295Z,3.80
2019-05-25T22:18:36.080Z,3.40
2019-05-25T22:21:04.730Z,3.43
2019-05-25T22:23:33.265Z,3.47
2019-05-25T22:26:01.770Z,2.90
2019-05-25T22:28:43.676Z,3.00
2019-05-25T22:31:00.862Z,3.33
2019-05-25T22:33:29.437Z,3.23
2019-05-25T22:35:58.006Z,3.07
2019-05-25T22:38:26.577Z,3.07
2019-05-25T22:40:55.154Z,3.20
2019-05-25T22:43:23.804Z,3.40
2019-05-25T22:45:52.380Z,3.40
2019-05-25T22:48:20.925Z,2.73
2019-05-25T22:50:49.513Z,3.60
2019-05-25T22:53:18.266Z,3.40
2019-05-25T22:55:46.810Z,4.30
2019-05-25T22:58:15.388Z,4.93
2019-05-25T23:00:43.977Z,4.67
2019-05-25T23:03:12.790Z,3.67
2019-05-25T23:05:41.300Z,3.50
2019-05-25T23:08:09.866Z,3.37
2019-05-25T23:10:38.802Z,3.60
2019-05-25T23:13:07.380Z,3.40
2019-05-25T23:15:35.926Z,3.40
2019-05-25T23:18:04.517Z,2.90
2019-05-25T23:20:36.376Z,3.50
2019-05-25T23:23:03.486Z,3.60
2019-05-25T23:25:32.068Z,3.30
2019-05-25T23:28:00.650Z,3.33
2019-05-25T23:30:29.614Z,3.00
2019-05-25T23:32:58.189Z,3.20
2019-05-25T23:35:26.795Z,3.37
2019-05-25T23:37:55.377Z,3.40
2019-05-25T23:40:24.217Z,3.37
2019-05-25T23:42:52.794Z,3.13
2019-05-25T23:45:21.909Z,3.07
2019-05-25T23:47:50.462Z,3.40
2019-05-25T23:50:19.097Z,3.77
2019-05-25T23:52:47.713Z,3.57
2019-05-25T23:55:16.495Z,3.37
2019-05-25T23:57:45.073Z,3.67
